createdAt,value
2023-05-04T00:00:28.134Z,-0.84
2023-05-04T00:02:56.239Z,-0.88
2023-05-04T00:05:25.725Z,-0.90
2023-05-04T00:07:53.534Z,-0.93
2023-05-04T00:10:21.479Z,-0.98
2023-05-04T00:12:49.405Z,-1.03
2023-05-04T00:15:17.389Z,-1.06
2023-05-04T00:17:45.220Z,-1.06
2023-05-04T00:20:14.631Z,-1.08
2023-05-04T00:22:43.882Z,-1.09
2023-05-04T00:25:12.114Z,-1.12
2023-05-04T00:27:40.005Z,-1.10
2023-05-04T00:30:09.288Z,-1.07
2023-05-04T00:32:37.205Z,-1.15
2023-05-04T00:35:05.538Z,-1.18
2023-05-04T00:37:33.351Z,-1.20
2023-05-04T00:40:02.761Z,-1.19
2023-05-04T00:42:30.829Z,-1.24
2023-05-04T00:45:01.998Z,-1.13
2023-05-04T00:47:31.039Z,-1.05
2023-05-04T00:49:58.826Z,-0.98
2023-05-04T00:52:26.770Z,-0.88
2023-05-04T00:54:56.080Z,-0.70
2023-05-04T00:57:25.323Z,-0.71
2023-05-04T00:59:53.762Z,-0.58
2023-05-04T01:02:21.917Z,-0.53
2023-05-04T01:04:49.900Z,-0.48
2023-05-04T01:07:24.020Z,-0.44
2023-05-04T01:09:58.042Z,-0.36
2023-05-04T01:12:35.039Z,-0.31
2023-05-04T01:15:04.445Z,-0.24
2023-05-04T01:17:32.501Z,-0.19
2023-05-04T01:20:00.323Z,-0.14
2023-05-04T01:22:29.884Z,-0.21
2023-05-04T01:24:58.033Z,0.01
2023-05-04T01:27:32.371Z,0.03
2023-05-04T01:30:03.901Z,0.04
2023-05-04T01:32:33.382Z,0.17
2023-05-04T01:35:01.696Z,0.22
2023-05-04T01:37:31.003Z,0.35
2023-05-04T01:39:58.831Z,0.34
2023-05-04T01:42:26.671Z,0.39
2023-05-04T01:44:54.470Z,0.46
2023-05-04T01:47:22.568Z,0.59
2023-05-04T01:49:50.504Z,0.65
2023-05-04T01:52:18.346Z,0.63
2023-05-04T01:54:47.618Z,0.66
2023-05-04T01:57:15.404Z,0.67
2023-05-04T01:59:43.236Z,0.70
2023-05-04T02:02:11.022Z,0.56
2023-05-04T02:04:38.819Z,0.59
2023-05-04T02:07:06.791Z,0.58
2023-05-04T02:09:35.402Z,0.45
2023-05-04T02:12:05.058Z,0.47
2023-05-04T02:14:32.959Z,0.43
2023-05-04T02:17:00.694Z,0.33
2023-05-04T02:19:28.426Z,0.31
2023-05-04T02:21:56.343Z,0.20
2023-05-04T02:24:24.121Z,0.20
2023-05-04T02:26:51.943Z,0.11
2023-05-04T02:29:21.999Z,-0.02
2023-05-04T02:31:50.187Z,-0.12
2023-05-04T02:34:18.356Z,-0.25
2023-05-04T02:36:47.029Z,-0.37
2023-05-04T02:39:15.036Z,-0.44
2023-05-04T02:41:43.001Z,-0.55
2023-05-04T02:44:10.808Z,-0.60
2023-05-04T02:46:39.920Z,-0.58
2023-05-04T02:49:08.084Z,-0.55
2023-05-04T02:51:35.895Z,-0.61
2023-05-04T02:54:03.639Z,-0.65
2023-05-04T02:56:31.376Z,-0.73
2023-05-04T02:58:59.136Z,-0.83
2023-05-04T03:01:26.943Z,-0.90
2023-05-04T03:03:56.611Z,-0.94
2023-05-04T03:06:24.343Z,-0.98
2023-05-04T03:08:52.125Z,-1.03
2023-05-04T03:11:20.035Z,-0.93
2023-05-04T03:13:47.815Z,-0.89
2023-05-04T03:16:16.825Z,-0.85
2023-05-04T03:18:44.575Z,-0.85
2023-05-04T03:21:13.729Z,-0.83
2023-05-04T03:23:41.425Z,-0.86
2023-05-04T03:26:09.425Z,-0.85
2023-05-04T03:28:37.657Z,-0.87
2023-05-04T03:31:06.065Z,-0.99
2023-05-04T03:33:34.227Z,-0.76
2023-05-04T03:36:02.004Z,-0.70
2023-05-04T03:38:31.711Z,-0.66
2023-05-04T03:40:59.492Z,-0.62
2023-05-04T03:43:27.881Z,-0.60
2023-05-04T03:45:55.688Z,-0.57
2023-05-04T03:48:23.433Z,-0.60
2023-05-04T03:50:51.241Z,-0.56
2023-05-04T03:53:18.979Z,-0.49
2023-05-04T03:55:48.116Z,-0.45
2023-05-04T03:58:15.999Z,-0.46
2023-05-04T04:00:43.749Z,-0.43
2023-05-04T04:03:11.694Z,-0.27
2023-05-04T04:05:39.637Z,-0.24
2023-05-04T04:08:07.470Z,-0.22
2023-05-04T04:10:36.171Z,0.02
2023-05-04T04:13:05.406Z,0.05
2023-05-04T04:15:33.280Z,0.13
2023-05-04T04:18:01.392Z,0.26
2023-05-04T04:20:29.298Z,0.27
2023-05-04T04:22:56.985Z,0.31
2023-05-04T04:25:25.299Z,0.30
2023-05-04T04:27:53.382Z,0.35
2023-05-04T04:30:22.850Z,0.40
2023-05-04T04:32:50.613Z,0.39
2023-05-04T04:35:18.375Z,0.57
2023-05-04T04:37:46.128Z,0.66
2023-05-04T04:40:14.571Z,0.80
2023-05-04T04:42:42.890Z,0.97
2023-05-04T04:45:11.422Z,1.06
2023-05-04T04:47:41.865Z,1.21
2023-05-04T04:50:10.621Z,1.38
2023-05-04T04:52:38.434Z,1.59
2023-05-04T04:55:07.772Z,1.81
2023-05-04T04:57:35.715Z,2.05
2023-05-04T05:00:07.287Z,2.31
2023-05-04T05:02:35.142Z,2.47
2023-05-04T05:05:04.542Z,2.68
2023-05-04T05:07:32.851Z,2.87
2023-05-04T05:10:00.693Z,3.10
2023-05-04T05:12:28.420Z,3.31
2023-05-04T05:14:56.274Z,3.49
2023-05-04T05:17:24.170Z,3.70
2023-05-04T05:19:52.537Z,3.89
2023-05-04T05:22:21.694Z,3.99
2023-05-04T05:24:49.482Z,4.13
2023-05-04T05:27:18.101Z,4.27
2023-05-04T05:29:45.930Z,4.44
2023-05-04T05:32:13.665Z,4.61
2023-05-04T05:34:42.405Z,4.79
2023-05-04T05:37:10.253Z,5.00
2023-05-04T05:39:39.571Z,5.20
2023-05-04T05:42:07.433Z,5.45
2023-05-04T05:44:59.531Z,5.62
2023-05-04T05:47:53.142Z,5.97
2023-05-04T05:50:21.286Z,6.21
2023-05-04T05:52:49.172Z,6.46
2023-05-04T05:55:18.472Z,6.64
2023-05-04T05:57:46.224Z,6.98
2023-05-04T06:00:15.084Z,7.29
2023-05-04T06:02:43.100Z,7.26
2023-05-04T06:05:11.648Z,7.26
2023-05-04T06:07:39.557Z,7.54
2023-05-04T06:10:08.816Z,7.89
2023-05-04T06:12:38.180Z,8.00
2023-05-04T06:15:07.461Z,8.33
2023-05-04T06:17:35.401Z,8.31
2023-05-04T06:20:03.337Z,8.70
2023-05-04T06:22:31.423Z,8.80
2023-05-04T06:25:03.596Z,8.74
2023-05-04T06:27:34.104Z,8.97
2023-05-04T06:30:03.822Z,9.05
2023-05-04T06:32:32.206Z,9.42
2023-05-04T06:35:00.445Z,9.53
2023-05-04T06:37:28.294Z,9.48
2023-05-04T06:39:56.636Z,9.53
2023-05-04T06:42:24.578Z,9.68
2023-05-04T06:44:52.511Z,9.69
2023-05-04T06:47:23.493Z,9.67
2023-05-04T06:49:52.652Z,9.91
2023-05-04T06:52:21.684Z,10.09
2023-05-04T06:55:14.253Z,10.17
2023-05-04T06:57:42.372Z,10.48
2023-05-04T07:00:11.365Z,10.99
2023-05-04T07:02:40.601Z,11.27
2023-05-04T07:05:09.135Z,11.18
2023-05-04T07:07:37.476Z,11.16
2023-05-04T07:10:06.031Z,11.48
2023-05-04T07:12:33.996Z,11.51
2023-05-04T07:15:01.757Z,11.24
2023-05-04T07:17:32.046Z,11.54
2023-05-04T07:20:02.388Z,12.16
2023-05-04T07:22:31.227Z,12.14
2023-05-04T07:24:59.038Z,12.32
2023-05-04T07:27:26.806Z,12.42
2023-05-04T07:29:54.531Z,12.25
2023-05-04T07:32:22.458Z,12.66
2023-05-04T07:34:50.328Z,12.86
2023-05-04T07:37:19.643Z,12.56
2023-05-04T07:39:47.459Z,12.65
2023-05-04T07:42:15.316Z,12.60
2023-05-04T07:44:43.289Z,12.77
2023-05-04T07:47:11.050Z,13.06
2023-05-04T07:49:38.814Z,13.00
2023-05-04T07:52:06.893Z,12.77
2023-05-04T07:54:36.396Z,13.16
2023-05-04T07:57:04.925Z,13.32
2023-05-04T07:59:32.966Z,13.75
2023-05-04T08:02:00.910Z,13.83
2023-05-04T08:04:28.714Z,13.81
2023-05-04T08:06:56.579Z,13.85
2023-05-04T08:09:24.515Z,13.97
2023-05-04T08:11:53.795Z,13.22
2023-05-04T08:14:21.933Z,13.48
2023-05-04T08:16:49.673Z,13.82
2023-05-04T08:19:17.500Z,14.44
2023-05-04T08:21:45.521Z,14.42
2023-05-04T08:24:13.286Z,14.28
2023-05-04T08:26:42.378Z,14.07
2023-05-04T08:29:11.659Z,14.22
2023-05-04T08:31:40.084Z,14.42
2023-05-04T08:34:07.942Z,14.97
2023-05-04T08:36:35.780Z,15.03
2023-05-04T08:39:03.557Z,15.73
2023-05-04T08:41:31.696Z,16.53
2023-05-04T08:43:59.860Z,16.03
2023-05-04T08:46:32.782Z,15.86
2023-05-04T08:49:01.741Z,16.37
2023-05-04T08:51:31.977Z,16.34
2023-05-04T08:54:00.782Z,16.06
2023-05-04T08:56:28.968Z,16.12
2023-05-04T08:59:01.807Z,16.66
2023-05-04T09:01:32.509Z,16.36
2023-05-04T09:04:03.170Z,15.70
2023-05-04T09:06:32.355Z,14.60
2023-05-04T09:09:00.192Z,13.77
2023-05-04T09:11:28.279Z,13.40
2023-05-04T09:13:56.143Z,14.04
2023-05-04T09:16:23.951Z,15.87
2023-05-04T09:18:53.139Z,16.65
2023-05-04T09:21:29.891Z,17.14
2023-05-04T09:23:57.961Z,16.88
2023-05-04T09:26:29.995Z,17.09
2023-05-04T09:28:58.075Z,16.47
2023-05-04T09:31:26.714Z,15.46
2023-05-04T09:33:56.019Z,14.18
2023-05-04T09:36:25.158Z,14.03
2023-05-04T09:38:53.063Z,13.50
2023-05-04T09:41:32.282Z,14.22
2023-05-04T09:44:00.055Z,16.20
2023-05-04T09:46:28.005Z,17.25
2023-05-04T09:48:58.008Z,19.08
2023-05-04T09:51:27.434Z,19.27
2023-05-04T09:53:55.426Z,18.85
2023-05-04T09:56:38.582Z,17.52
2023-05-04T09:59:06.432Z,16.84
2023-05-04T10:01:34.348Z,17.64
2023-05-04T10:04:04.049Z,17.90
2023-05-04T10:06:31.820Z,17.97
2023-05-04T10:09:00.613Z,16.30
2023-05-04T10:11:29.815Z,15.12
2023-05-04T10:13:57.952Z,13.71
2023-05-04T10:16:34.651Z,12.75
2023-05-04T10:19:19.314Z,12.05
2023-05-04T10:22:00.843Z,11.73
2023-05-04T10:25:19.672Z,13.30
2023-05-04T10:28:01.449Z,15.12
2023-05-04T10:30:29.835Z,17.03
2023-05-04T10:32:58.718Z,16.67
2023-05-04T10:35:28.479Z,15.63
2023-05-04T10:37:57.366Z,14.78
2023-05-04T10:40:36.653Z,13.50
2023-05-04T10:43:05.071Z,12.90
2023-05-04T10:45:37.544Z,13.61
2023-05-04T10:48:06.110Z,14.94
2023-05-04T10:50:44.699Z,14.70
2023-05-04T10:53:13.096Z,13.62
2023-05-04T10:55:42.573Z,12.55
2023-05-04T10:58:11.560Z,12.87
2023-05-04T11:00:41.314Z,14.46
2023-05-04T11:03:10.499Z,16.48
2023-05-04T11:05:44.582Z,17.72
2023-05-04T11:08:17.324Z,17.48
2023-05-04T11:10:47.619Z,17.04
2023-05-04T11:13:16.681Z,16.32
2023-05-04T11:15:49.009Z,15.23
2023-05-04T11:18:26.571Z,14.21
2023-05-04T11:20:56.203Z,15.52
2023-05-04T11:23:24.625Z,16.78
2023-05-04T11:25:52.432Z,16.43
2023-05-04T11:28:20.259Z,16.36
2023-05-04T11:30:48.678Z,15.79
2023-05-04T11:33:17.199Z,15.23
2023-05-04T11:35:45.688Z,14.25
2023-05-04T11:38:20.112Z,13.74
2023-05-04T11:40:49.847Z,12.90
2023-05-04T11:43:18.871Z,12.52
2023-05-04T11:45:48.925Z,12.38
2023-05-04T11:48:18.784Z,12.32
2023-05-04T11:50:47.874Z,11.88
2023-05-04T11:53:21.596Z,12.30
2023-05-04T11:55:49.619Z,12.87
2023-05-04T11:58:25.434Z,13.79
2023-05-04T12:00:56.990Z,14.31
2023-05-04T12:03:35.534Z,15.24
2023-05-04T12:06:11.518Z,15.97
2023-05-04T12:08:43.090Z,17.86
2023-05-04T12:11:13.169Z,18.53
2023-05-04T12:13:42.451Z,17.12
2023-05-04T12:16:14.636Z,15.97
2023-05-04T12:18:44.397Z,15.08
2023-05-04T12:21:13.921Z,14.44
2023-05-04T12:23:43.483Z,15.66
2023-05-04T12:26:12.124Z,16.77
2023-05-04T12:28:41.288Z,18.31
2023-05-04T12:31:10.310Z,19.20
2023-05-04T12:33:38.451Z,18.82
2023-05-04T12:36:06.993Z,19.28
2023-05-04T12:38:35.074Z,20.10
2023-05-04T12:41:04.650Z,21.01
2023-05-04T12:43:33.233Z,22.39
2023-05-04T12:46:01.257Z,22.59
2023-05-04T12:48:32.039Z,21.37
2023-05-04T12:51:00.671Z,19.67
2023-05-04T12:53:30.065Z,17.46
2023-05-04T12:55:58.500Z,15.93
2023-05-04T12:58:28.687Z,14.26
2023-05-04T13:00:59.946Z,13.19
2023-05-04T13:03:28.254Z,12.39
2023-05-04T13:05:58.381Z,11.99
2023-05-04T13:08:26.279Z,12.65
2023-05-04T13:10:54.068Z,14.33
2023-05-04T13:13:26.257Z,14.34
2023-05-04T13:15:56.071Z,14.06
2023-05-04T13:18:27.040Z,15.51
2023-05-04T13:20:54.890Z,17.68
2023-05-04T13:23:22.766Z,19.12
2023-05-04T13:25:51.152Z,17.10
2023-05-04T13:28:19.355Z,15.91
2023-05-04T13:30:47.602Z,14.47
2023-05-04T13:33:27.824Z,13.57
2023-05-04T13:35:58.010Z,12.65
2023-05-04T13:38:26.316Z,11.71
2023-05-04T13:40:54.162Z,11.12
2023-05-04T13:43:22.553Z,10.82
2023-05-04T13:45:50.388Z,10.69
2023-05-04T13:50:59.886Z,10.38
2023-05-04T13:53:27.596Z,11.68
2023-05-04T13:55:55.318Z,12.40
2023-05-04T13:58:23.124Z,12.33
2023-05-04T14:00:50.870Z,12.85
2023-05-04T14:03:18.965Z,14.88
2023-05-04T14:05:46.844Z,16.09
2023-05-04T14:08:15.993Z,16.94
2023-05-04T14:10:43.727Z,17.41
2023-05-04T14:13:11.769Z,17.09
2023-05-04T14:15:39.550Z,15.58
2023-05-04T14:18:07.365Z,13.58
2023-05-04T14:20:35.136Z,13.19
2023-05-04T14:23:02.996Z,12.32
2023-05-04T14:25:32.138Z,11.99
2023-05-04T14:27:59.873Z,11.18
2023-05-04T14:30:27.728Z,10.82
2023-05-04T14:32:56.414Z,10.72
2023-05-04T14:35:24.632Z,10.51
2023-05-04T14:37:53.233Z,10.71
2023-05-04T14:40:21.262Z,10.76
2023-05-04T14:42:50.555Z,10.62
2023-05-04T14:45:18.582Z,11.22
2023-05-04T14:47:47.366Z,12.13
2023-05-04T14:50:15.453Z,12.85
2023-05-04T14:52:43.263Z,13.13
2023-05-04T14:55:11.621Z,14.13
2023-05-04T14:57:39.886Z,14.68
2023-05-04T15:00:11.143Z,14.77
2023-05-04T15:02:39.674Z,14.94
2023-05-04T15:05:10.297Z,13.80
2023-05-04T15:07:38.137Z,12.93
2023-05-04T15:10:08.093Z,12.40
2023-05-04T15:12:36.188Z,12.17
2023-05-04T15:15:04.149Z,12.02
2023-05-04T15:17:33.324Z,11.97
2023-05-04T15:20:01.831Z,11.72
2023-05-04T15:22:29.752Z,11.93
2023-05-04T15:24:57.690Z,12.17
2023-05-04T15:27:25.756Z,12.10
2023-05-04T15:29:54.784Z,11.74
2023-05-04T15:32:22.624Z,11.37
2023-05-04T15:35:03.897Z,12.21
2023-05-04T15:37:33.474Z,14.23
2023-05-04T15:40:02.472Z,15.67
2023-05-04T15:42:30.753Z,17.26
2023-05-04T15:44:58.725Z,17.90
2023-05-04T15:47:26.943Z,18.23
2023-05-04T15:49:56.152Z,18.35
2023-05-04T15:52:23.975Z,18.62
2023-05-04T15:54:52.022Z,17.45
2023-05-04T15:57:19.781Z,16.93
2023-05-04T15:59:49.630Z,17.53
2023-05-04T16:02:17.522Z,17.83
2023-05-04T16:04:45.531Z,18.25
2023-05-04T16:07:14.758Z,18.29
2023-05-04T16:09:42.657Z,18.02
2023-05-04T16:12:10.942Z,17.06
2023-05-04T16:14:38.817Z,16.49
2023-05-04T16:17:07.449Z,16.21
2023-05-04T16:19:35.284Z,16.25
2023-05-04T16:22:03.213Z,16.39
2023-05-04T16:24:32.441Z,15.98
2023-05-04T16:27:00.264Z,14.70
2023-05-04T16:29:28.183Z,13.71
2023-05-04T16:31:56.556Z,13.50
2023-05-04T16:34:24.311Z,13.04
2023-05-04T16:36:52.222Z,12.03
2023-05-04T16:39:20.373Z,10.79
2023-05-04T16:41:49.452Z,10.12
2023-05-04T16:44:17.265Z,9.40
2023-05-04T16:46:45.060Z,9.04
2023-05-04T16:49:14.534Z,8.74
2023-05-04T16:51:42.877Z,8.26
2023-05-04T16:54:10.649Z,8.06
2023-05-04T16:56:38.424Z,7.81
2023-05-04T16:59:07.797Z,7.61
2023-05-04T17:01:36.032Z,7.34
2023-05-04T17:04:04.510Z,7.36
2023-05-04T17:06:32.355Z,7.21
2023-05-04T17:09:00.853Z,7.10
2023-05-04T17:11:28.638Z,7.08
2023-05-04T17:13:56.470Z,7.01
2023-05-04T17:16:25.733Z,6.89
2023-05-04T17:18:53.500Z,6.73
2023-05-04T17:21:21.266Z,6.59
2023-05-04T17:23:49.022Z,6.44
2023-05-04T17:26:16.910Z,6.48
2023-05-04T17:28:44.815Z,6.35
2023-05-04T17:31:13.451Z,6.24
2023-05-04T17:33:42.568Z,6.20
2023-05-04T17:36:12.123Z,6.08
2023-05-04T17:38:40.246Z,5.97
2023-05-04T17:41:09.720Z,5.92
2023-05-04T17:43:37.727Z,5.81
2023-05-04T17:46:05.872Z,5.82
2023-05-04T17:48:33.723Z,5.68
2023-05-04T17:51:02.936Z,5.59
2023-05-04T17:53:30.908Z,5.49
2023-05-04T17:55:58.648Z,5.40
2023-05-04T17:58:26.677Z,5.44
2023-05-04T18:00:54.426Z,5.23
2023-05-04T18:03:22.438Z,5.04
2023-05-04T18:05:50.382Z,4.93
2023-05-04T18:08:19.481Z,4.80
2023-05-04T18:10:48.555Z,4.72
2023-05-04T18:13:16.499Z,4.72
2023-05-04T18:15:44.203Z,4.54
2023-05-04T18:18:12.120Z,4.48
2023-05-04T18:20:41.384Z,4.47
2023-05-04T18:23:09.175Z,4.28
2023-05-04T18:25:39.232Z,4.18
2023-05-04T18:28:07.540Z,4.03
2023-05-04T18:30:35.454Z,3.88
2023-05-04T18:33:03.427Z,3.84
2023-05-04T18:35:31.166Z,3.86
2023-05-04T18:37:58.898Z,3.58
2023-05-04T18:40:26.710Z,3.53
2023-05-04T18:42:56.020Z,3.34
2023-05-04T18:45:23.993Z,3.12
2023-05-04T18:47:51.899Z,2.95
2023-05-04T18:50:19.944Z,2.80
2023-05-04T18:52:47.779Z,2.67
2023-05-04T18:55:15.564Z,2.50
2023-05-04T18:57:43.430Z,2.36
2023-05-04T19:00:13.929Z,2.18
2023-05-04T19:02:41.803Z,2.04
2023-05-04T19:05:12.243Z,1.94
2023-05-04T19:07:41.613Z,1.84
2023-05-04T19:10:10.837Z,1.80
2023-05-04T19:12:38.639Z,1.73
2023-05-04T19:15:07.788Z,1.65
2023-05-04T19:17:37.108Z,1.60
2023-05-04T19:20:05.886Z,1.51
2023-05-04T19:22:33.857Z,1.40
2023-05-04T19:25:01.560Z,1.28
2023-05-04T19:27:29.626Z,1.25
2023-05-04T19:29:57.551Z,1.23
2023-05-04T19:32:25.401Z,1.22
2023-05-04T19:34:54.560Z,1.19
2023-05-04T19:37:22.489Z,1.11
2023-05-04T19:39:50.425Z,1.08
2023-05-04T19:42:18.264Z,1.00
2023-05-04T19:44:46.166Z,0.88
2023-05-04T19:47:13.996Z,0.73
2023-05-04T19:49:41.841Z,0.62
2023-05-04T19:52:11.106Z,0.51
2023-05-04T19:54:41.285Z,0.39
2023-05-04T19:57:09.969Z,0.30
2023-05-04T19:59:37.752Z,0.21
2023-05-04T20:02:05.628Z,0.14
2023-05-04T20:04:34.163Z,0.11
2023-05-04T20:07:02.556Z,0.10
2023-05-04T20:09:31.762Z,0.05
2023-05-04T20:11:59.482Z,0.01
2023-05-04T20:14:29.447Z,-0.05
2023-05-04T20:16:57.428Z,-0.14
2023-05-04T20:19:25.232Z,-0.33
2023-05-04T20:21:53.517Z,-0.22
2023-05-04T20:24:22.165Z,-0.27
2023-05-04T20:26:51.276Z,-0.36
2023-05-04T20:29:19.204Z,-0.40
2023-05-04T20:31:47.088Z,-0.48
2023-05-04T20:34:16.293Z,-0.53
2023-05-04T20:36:46.364Z,-0.65
2023-05-04T20:39:14.898Z,-0.66
2023-05-04T20:41:42.639Z,-0.70
2023-05-04T20:44:11.725Z,-0.78
2023-05-04T20:46:40.569Z,-0.81
2023-05-04T20:49:09.035Z,-0.89
2023-05-04T20:51:36.819Z,-0.95
2023-05-04T20:54:05.117Z,-1.02
2023-05-04T20:56:33.082Z,-1.00
2023-05-04T20:59:01.026Z,-1.04
2023-05-04T21:01:30.692Z,-1.11
2023-05-04T21:03:58.727Z,-1.17
2023-05-04T21:06:26.657Z,-1.27
2023-05-04T21:08:54.460Z,-1.36
2023-05-04T21:11:22.197Z,-1.36
2023-05-04T21:13:50.045Z,-1.43
2023-05-04T21:16:17.928Z,-1.47
2023-05-04T21:18:47.068Z,-1.50
2023-05-04T21:21:14.894Z,-1.57
2023-05-04T21:23:42.838Z,-1.62
2023-05-04T21:26:11.586Z,-1.64
2023-05-04T21:28:39.361Z,-1.65
2023-05-04T21:31:08.030Z,-1.68
2023-05-04T21:33:35.895Z,-1.70
2023-05-04T21:36:13.484Z,-1.78
2023-05-04T21:38:41.860Z,-1.90
2023-05-04T21:41:14.189Z,-1.91
2023-05-04T21:43:42.150Z,-1.94
2023-05-04T21:46:11.956Z,-2.07
2023-05-04T21:48:40.156Z,-2.04
2023-05-04T21:51:07.920Z,-2.05
2023-05-04T21:53:37.079Z,-2.07
2023-05-04T21:56:08.625Z,-2.04
2023-05-04T21:58:37.250Z,-2.05
2023-05-04T22:01:05.716Z,-2.08
2023-05-04T22:03:34.097Z,-2.09
2023-05-04T22:06:02.158Z,-2.14
2023-05-04T22:08:30.353Z,-2.19
2023-05-04T22:11:00.231Z,-2.21
2023-05-04T22:13:28.432Z,-2.24
2023-05-04T22:15:56.340Z,-2.26
2023-05-04T22:18:24.239Z,-2.32
2023-05-04T22:20:52.119Z,-2.36
2023-05-04T22:23:19.926Z,-2.38
2023-05-04T22:25:48.140Z,-2.44
2023-05-04T22:28:17.268Z,-2.55
2023-05-04T22:30:45.232Z,-2.51
2023-05-04T22:33:13.117Z,-2.55
2023-05-04T22:35:41.088Z,-2.60
2023-05-04T22:38:09.462Z,-2.65
2023-05-04T22:40:40.383Z,-2.67
2023-05-04T22:43:08.414Z,-2.72
2023-05-04T22:45:38.401Z,-2.76
2023-05-04T22:48:06.257Z,-2.79
2023-05-04T22:50:34.234Z,-2.87
2023-05-04T22:53:02.413Z,-2.83
2023-05-04T22:55:30.277Z,-2.83
2023-05-04T22:57:58.127Z,-2.83
2023-05-04T23:00:26.134Z,-2.82
2023-05-04T23:02:55.343Z,-2.83
2023-05-04T23:05:23.270Z,-2.85
2023-05-04T23:07:51.404Z,-2.86
2023-05-04T23:10:19.348Z,-2.90
2023-05-04T23:12:47.332Z,-2.92
2023-05-04T23:15:15.296Z,-2.96
2023-05-04T23:17:43.137Z,-3.03
2023-05-04T23:20:13.382Z,-3.06
2023-05-04T23:22:41.375Z,-3.12
2023-05-04T23:25:09.808Z,-3.14
2023-05-04T23:27:37.713Z,-3.21
2023-05-04T23:30:06.849Z,-3.23
2023-05-04T23:32:34.845Z,-3.27
2023-05-04T23:35:02.664Z,-3.29
2023-05-04T23:37:32.812Z,-3.41
2023-05-04T23:40:00.892Z,-3.35
2023-05-04T23:42:28.730Z,-3.38
2023-05-04T23:44:56.845Z,-3.41
2023-05-04T23:47:24.936Z,-3.44
2023-05-04T23:49:53.886Z,-3.49
2023-05-04T23:52:21.805Z,-3.52
2023-05-04T23:54:54.639Z,-3.54
2023-05-04T23:57:22.507Z,-3.61
2023-05-04T23:59:50.284Z,-3.61
